Time;durP1;ratioP1;P1;durP2;ratioP2;P2;SDS_P1;SDS_P2;PMS_P1;PMS_P2;Temp;Humidity;BMP_temperature;BMP_pressure;BME280_temperature;BME280_humidity;BME280_pressure;Samples;Min_cycle;Max_cycle;Signal;HPM_P1;HPM_P2
2021/09/19 00:00:50;;;;;;;3.10;3.00;;;17.80;99.90;;;18.03;73.22;101454.78;5114225;28;20100;-73
2021/09/19 00:03:18;;;;;;;2.80;2.70;;;17.80;99.90;;;17.95;73.32;101454.09;5114136;28;20122;-73
2021/09/19 00:05:47;;;;;;;3.25;3.05;;;17.80;99.90;;;18.07;73.07;101459.16;5114446;28;20507;-73
2021/09/19 00:08:15;;;;;;;3.80;3.53;;;17.80;99.90;;;17.86;73.69;101446.31;5114066;28;20478;-73
2021/09/19 00:10:44;;;;;;;2.78;2.67;;;17.60;99.90;;;17.88;73.91;101455.19;5114644;28;20050;-73
2021/09/19 00:13:13;;;;;;;3.15;3.05;;;17.60;99.90;;;17.97;73.59;101452.28;5114522;28;20052;-73
2021/09/19 00:15:42;;;;;;;3.90;3.70;;;17.70;99.90;;;18.07;73.13;101445.78;5114230;28;20050;-73
2021/09/19 00:18:12;;;;;;;2.90;2.80;;;17.80;99.90;;;18.03;73.02;101420.00;5114285;28;20048;-73
2021/09/19 00:20:41;;;;;;;2.73;2.63;;;17.90;99.90;;;18.27;72.54;101438.09;5114547;28;20036;-73
2021/09/19 00:23:09;;;;;;;2.67;2.58;;;18.00;99.90;;;18.38;72.13;101433.31;5113941;28;20048;-73
2021/09/19 00:25:38;;;;;;;2.55;2.45;;;18.10;99.90;;;18.20;71.75;101403.47;5113789;28;20134;-73
2021/09/19 00:28:08;;;;;;;2.83;2.72;;;18.20;99.90;;;18.50;71.54;101440.19;5113756;28;20035;-73
2021/09/19 00:30:36;;;;;;;3.67;3.47;;;18.20;99.90;;;18.40;71.54;101436.84;5113965;28;20051;-73
2021/09/19 00:33:05;;;;;;;2.33;2.22;;;18.10;99.90;;;18.53;71.36;101435.59;5113721;28;20067;-73
2021/09/19 00:35:35;;;;;;;2.85;2.75;;;18.20;99.90;;;18.55;70.77;101433.75;5113650;28;20032;-73
2021/09/19 00:38:03;;;;;;;2.72;2.63;;;18.30;99.90;;;18.41;70.87;101417.16;5095666;28;20073;-73
2021/09/19 00:40:32;;;;;;;2.38;2.28;;;18.30;99.90;;;18.58;70.99;101430.97;5113904;28;20126;-73
2021/09/19 00:43:00;;;;;;;3.25;3.05;;;18.30;99.90;;;18.62;70.66;101432.66;5113554;28;20485;-73
2021/09/19 00:45:29;;;;;;;2.60;2.50;;;18.40;99.90;;;18.66;70.62;101434.34;5114067;28;20439;-73
2021/09/19 00:47:58;;;;;;;2.75;2.65;;;18.40;99.90;;;18.66;70.78;101442.38;5113639;28;20546;-73
2021/09/19 00:50:28;;;;;;;2.65;2.55;;;18.40;99.90;;;18.68;70.35;101432.50;5113444;28;20043;-73
2021/09/19 00:52:58;;;;;;;2.92;2.83;;;18.40;99.90;;;18.69;70.49;101439.63;5113454;28;20070;-73
2021/09/19 00:55:26;;;;;;;2.70;2.60;;;18.40;99.90;;;18.72;70.41;101431.47;5113396;28;20043;-73
2021/09/19 00:57:56;;;;;;;3.67;3.47;;;18.50;99.90;;;18.64;70.64;101433.50;5116848;28;20445;-73
2021/09/19 01:00:29;;;;;;;3.00;2.90;;;18.40;99.90;;;18.53;70.67;101429.34;5120444;28;20386;-73
2021/09/19 01:02:58;;;;;;;2.90;2.80;;;18.30;99.90;;;18.52;70.88;101428.50;5120339;28;20666;-73
2021/09/19 01:05:27;;;;;;;2.42;2.33;;;18.30;99.90;;;18.48;71.06;101425.94;5102128;28;20044;-73
2021/09/19 01:07:59;;;;;;;2.55;2.45;;;18.20;99.90;;;18.52;71.09;101425.81;5120039;28;20498;-73
2021/09/19 01:10:27;;;;;;;2.45;2.35;;;18.30;99.90;;;18.52;70.98;101417.78;5120238;28;20118;-73
2021/09/19 01:12:58;;;;;;;3.78;3.53;;;18.30;99.90;;;18.45;71.01;101416.19;5120364;28;20047;-73
2021/09/19 01:15:27;;;;;;;2.38;2.28;;;18.20;99.90;;;18.31;71.26;101391.53;5120319;28;20052;-73
2021/09/19 01:17:59;;;;;;;2.92;2.83;;;18.20;99.90;;;18.37;71.21;101393.19;5120107;28;20043;-73
2021/09/19 01:20:28;;;;;;;2.72;2.63;;;18.20;99.90;;;18.31;71.52;101388.84;5120087;28;20047;-73
2021/09/19 01:23:05;;;;;;;3.22;3.03;;;18.20;99.90;;;18.36;71.65;101392.31;5120240;28;20052;-73
2021/09/19 01:25:35;;;;;;;3.20;3.08;;;18.10;99.90;;;18.27;71.52;101387.22;5120055;28;20053;-73
2021/09/19 01:28:05;;;;;;;2.53;2.42;;;18.20;99.90;;;18.36;71.57;101400.34;5120011;28;20071;-73
2021/09/19 01:30:35;;;;;;;9.60;3.58;;;18.20;99.90;;;18.38;71.52;101406.53;5119933;28;20485;-73
2021/09/19 01:33:04;;;;;;;2.40;2.30;;;18.10;99.90;;;17.78;71.47;101306.47;5120068;28;20071;-73
2021/09/19 01:35:33;;;;;;;2.92;2.83;;;18.10;99.90;;;18.31;71.70;101402.25;5119874;28;20131;-73
2021/09/19 01:38:02;;;;;;;2.88;2.78;;;18.10;99.90;;;17.83;71.74;101316.13;5120173;28;20044;-73
2021/09/19 01:40:31;;;;;;;3.88;3.58;;;18.10;99.90;;;18.27;71.54;101391.69;5120120;28;20078;-73
2021/09/19 01:43:01;;;;;;;2.50;2.40;;;18.00;99.90;;;18.29;71.75;101389.84;5101792;28;20488;-73
2021/09/19 01:45:31;;;;;;;3.03;2.92;;;18.00;99.90;;;17.93;71.57;101340.84;5120114;28;20071;-73
2021/09/19 01:48:00;;;;;;;2.38;2.28;;;18.00;99.90;;;17.97;71.83;101355.91;5119596;28;20052;-73
2021/09/19 01:50:29;;;;;;;3.17;3.00;;;17.90;99.90;;;18.15;71.90;101392.00;5119762;28;20074;-73
2021/09/19 01:53:02;;;;;;;3.00;2.90;;;17.90;99.90;;;18.09;71.96;101397.53;5119971;28;20766;-72
2021/09/19 01:55:31;;;;;;;2.75;2.65;;;17.90;99.90;;;17.90;72.14;101391.78;5119752;28;20481;-73
2021/09/19 01:58:02;;;;;;;3.13;3.03;;;17.90;99.90;;;18.05;72.03;101404.78;5120024;28;20070;-73
2021/09/19 02:00:30;;;;;;;2.70;2.60;;;17.80;99.90;;;17.97;72.04;101382.66;5120319;28;20043;-73
2021/09/19 02:02:59;;;;;;;3.78;3.58;;;17.80;99.90;;;17.99;72.00;101399.56;5119938;28;20059;-73
2021/09/19 02:05:28;;;;;;;2.88;2.78;;;17.80;99.90;;;17.89;72.37;101388.22;5119750;28;20035;-73
2021/09/19 02:07:57;;;;;;;2.70;2.60;;;17.70;99.90;;;17.88;72.32;101393.63;5119629;28;20054;-73
2021/09/19 02:10:25;;;;;;;3.33;3.15;;;17.60;99.90;;;17.82;72.78;101393.78;5115571;28;20040;-73
2021/09/19 02:12:53;;;;;;;2.60;2.50;;;17.60;99.90;;;17.68;73.03;101390.56;5116933;28;20043;-73
2021/09/19 02:15:23;;;;;;;2.40;2.30;;;17.50;99.90;;;17.65;73.11;101386.16;5098041;28;20485;-73
2021/09/19 02:17:51;;;;;;;2.70;2.60;;;17.40;99.90;;;17.53;73.18;101366.88;5116268;28;20096;-73
2021/09/19 02:20:20;;;;;;;2.90;2.80;;;17.40;99.90;;;17.54;73.34;101371.28;5116234;28;20122;-73
2021/09/19 02:22:49;;;;;;;3.13;2.97;;;17.40;99.90;;;17.42;73.96;101383.13;5116199;28;20130;-73
2021/09/19 02:25:17;;;;;;;2.80;2.70;;;17.30;99.90;;;17.46;73.97;101386.66;5116735;28;20157;-72
2021/09/19 02:27:46;;;;;;;3.00;2.90;;;17.20;99.90;;;17.27;74.43;101383.50;5116163;28;20047;-73
2021/09/19 02:30:16;;;;;;;2.83;2.72;;;17.10;99.90;;;17.25;74.88;101384.50;5114808;28;20036;-73
2021/09/19 02:32:46;;;;;;;2.65;2.55;;;17.00;99.90;;;17.06;75.19;101379.56;5116124;28;20451;-72
2021/09/19 02:35:15;;;;;;;2.80;2.70;;;16.80;99.90;;;17.07;75.70;101385.78;5116042;28;20040;-73
2021/09/19 02:37:47;;;;;;;2.92;2.83;;;16.80;99.90;;;17.01;75.78;101376.09;5115876;28;20293;-73
2021/09/19 02:40:18;;;;;;;2.75;2.65;;;16.70;99.90;;;16.95;76.07;101359.34;5116220;28;20048;-73
2021/09/19 02:42:48;;;;;;;2.60;2.50;;;16.70;99.90;;;17.22;75.57;101376.53;5115882;28;20098;-73
2021/09/19 02:45:19;;;;;;;3.05;2.95;;;16.80;99.90;;;16.63;75.16;101252.28;5115817;28;20101;-73
2021/09/19 02:47:50;;;;;;;2.97;2.88;;;17.00;99.90;;;17.12;74.95;101366.06;5115904;28;20113;-73
2021/09/19 02:50:22;;;;;;;2.45;2.35;;;16.90;99.90;;;17.19;75.22;101369.44;5115715;28;20043;-73
2021/09/19 02:52:51;;;;;;;2.60;2.50;;;17.00;99.90;;;16.96;75.72;101366.41;5115645;28;20047;-73
2021/09/19 02:55:21;;;;;;;2.55;2.45;;;16.80;99.90;;;16.88;76.63;101376.38;5115583;28;20070;-73
2021/09/19 02:57:50;;;;;;;2.50;2.40;;;16.60;99.90;;;16.84;76.41;101350.69;5115465;28;20138;-73
2021/09/19 03:00:21;;;;;;;2.63;2.53;;;16.70;99.90;;;17.00;76.27;101363.66;5115783;28;20127;-73
2021/09/19 03:02:51;;;;;;;;;;;16.70;99.90;;;17.08;76.14;101359.00;5116203;28;20406;-73
2021/09/19 03:05:20;;;;;;;;;;;16.80;99.90;;;17.10;75.98;101362.53;5116523;28;19949;-73
2021/09/19 03:07:48;;;;;;;2.60;2.50;;;16.80;99.90;;;17.11;75.64;101358.06;5115544;28;20342;-73
2021/09/19 03:10:17;;;;;;;4.13;3.92;;;16.90;99.90;;;17.00;76.05;101363.66;5115611;28;20044;-73
2021/09/19 03:12:45;;;;;;;3.28;3.08;;;16.80;99.90;;;16.60;77.19;101376.13;5115519;28;20115;-73
2021/09/19 03:15:14;;;;;;;2.78;2.67;;;16.40;99.90;;;16.51;78.19;101372.78;5115167;28;20051;-73
2021/09/19 03:17:43;;;;;;;2.75;2.55;;;16.20;99.90;;;16.52;77.78;101359.38;5115374;28;20122;-73
2021/09/19 03:20:16;;;;;;;2.72;2.63;;;16.30;99.90;;;16.59;78.00;101350.31;5114784;28;20550;-73
2021/09/19 03:22:46;;;;;;;2.40;2.30;;;16.40;99.90;;;16.60;78.05;101357.44;5097028;28;20047;-73
2021/09/19 03:25:16;;;;;;;2.70;2.60;;;16.30;99.90;;;16.76;77.84;101360.66;5115645;28;20435;-73
2021/09/19 03:27:45;;;;;;;2.93;2.83;;;16.50;99.90;;;16.55;77.57;101323.72;5115016;28;20096;-73
2021/09/19 03:30:15;;;;;;;2.92;2.83;;;16.50;99.90;;;16.78;77.69;101356.16;5115223;28;20122;-73
2021/09/19 03:32:45;;;;;;;3.28;3.17;;;16.60;99.90;;;16.83;77.62;101352.47;5115201;28;20043;-73
2021/09/19 03:35:15;;;;;;;2.80;2.70;;;16.60;99.90;;;16.93;77.37;101343.34;5114871;28;20044;-72
2021/09/19 03:37:44;;;;;;;2.72;2.63;;;16.60;99.90;;;17.00;77.13;101344.06;5114712;28;20101;-73
2021/09/19 03:40:14;;;;;;;9.80;9.23;;;16.70;99.90;;;16.91;76.92;101344.28;5115247;28;20040;-73
2021/09/19 03:42:43;;;;;;;2.75;2.65;;;16.70;99.90;;;16.87;77.06;101335.44;5114683;28;20047;-73
2021/09/19 03:45:12;;;;;;;2.60;2.50;;;16.70;99.90;;;17.03;76.73;101346.69;5114902;28;20449;-73
2021/09/19 03:47:41;;;;;;;3.00;2.90;;;16.80;99.90;;;17.04;76.69;101343.97;5114446;28;20078;-73
2021/09/19 03:50:11;;;;;;;2.80;2.70;;;16.80;99.90;;;17.08;76.41;101332.28;5114765;28;20074;-73
2021/09/19 03:52:41;;;;;;;4.20;3.72;;;16.90;99.90;;;16.97;76.25;101306.72;5114743;28;20043;-73
2021/09/19 03:55:11;;;;;;;2.63;2.53;;;16.90;99.90;;;17.14;76.13;101340.16;5114467;28;20455;-73
2021/09/19 03:57:39;;;;;;;3.00;2.90;;;16.90;99.90;;;16.99;76.39;101337.81;5114620;28;20619;-73
2021/09/19 04:00:09;;;;;;;2.60;2.50;;;16.90;99.90;;;17.02;76.53;101335.09;5114295;28;20059;-73
2021/09/19 04:02:41;;;;;;;2.88;2.78;;;16.80;99.90;;;16.91;76.67;101321.13;5114333;28;20039;-73
2021/09/19 04:05:12;;;;;;;2.78;2.67;;;16.80;99.90;;;16.95;76.75;101321.91;5114211;28;20089;-73
2021/09/19 04:07:41;;;;;;;2.75;2.65;;;16.70;99.90;;;16.79;77.37;101325.84;5114560;28;20075;-73
2021/09/19 04:10:12;;;;;;;3.05;2.95;;;16.60;99.90;;;16.66;77.55;101325.25;5114400;28;20074;-73
2021/09/19 04:12:41;;;;;;;3.03;2.83;;;16.50;99.90;;;16.70;77.92;101326.94;5114160;28;20467;-73
2021/09/19 04:15:11;;;;;;;3.58;3.38;;;16.50;99.90;;;16.69;77.74;101332.28;5114433;28;20039;-73
2021/09/19 04:17:40;;;;;;;3.72;3.40;;;16.50;99.90;;;16.78;77.65;101329.44;5114019;28;20435;-73
2021/09/19 04:20:11;;;;;;;2.92;2.83;;;16.50;99.90;;;16.34;78.04;101321.47;5114544;28;20043;-73
2021/09/19 04:22:42;;;;;;;4.85;4.45;;;16.40;99.90;;;15.85;80.23;101321.56;5114266;28;20043;-73
2021/09/19 04:25:12;;;;;;;4.82;4.53;;;15.80;99.90;;;16.06;80.56;101353.16;5114191;28;20071;-72
2021/09/19 04:27:40;;;;;;;5.22;4.88;;;15.80;99.90;;;15.78;81.23;101342.13;5114105;28;20135;-73
2021/09/19 04:30:10;;;;;;;3.65;3.45;;;15.60;99.90;;;15.55;81.64;101295.44;5114126;28;20044;-72
2021/09/19 04:32:44;;;;;;;2.97;2.88;;;15.50;99.90;;;15.73;81.88;101329.78;5113403;28;20043;-73
2021/09/19 04:35:13;;;;;;;2.92;2.83;;;15.50;99.90;;;15.79;81.95;101343.00;5114358;28;20093;-73
2021/09/19 04:37:43;;;;;;;3.60;3.40;;;15.60;99.90;;;15.71;81.93;101334.25;5113631;28;20456;-73
2021/09/19 04:40:12;;;;;;;4.22;4.03;;;15.50;99.90;;;15.75;82.18;101338.63;5113706;28;20050;-72
2021/09/19 04:42:41;;;;;;;3.17;3.00;;;15.50;99.90;;;15.81;82.01;101334.06;5095728;28;20047;-73
2021/09/19 04:45:11;;;;;;;4.18;3.97;;;15.60;99.90;;;15.80;81.89;101334.06;5113843;28;20418;-72
2021/09/19 04:47:40;;;;;;;3.17;3.08;;;15.60;99.90;;;15.94;81.78;101337.38;5113736;28;20047;-72
2021/09/19 04:50:13;;;;;;;2.75;2.65;;;15.70;99.90;;;16.03;81.48;101339.88;5113871;28;20035;-73
2021/09/19 04:52:43;;;;;;;3.05;2.95;;;15.80;99.90;;;16.06;81.32;101339.81;5114008;28;20035;-73
2021/09/19 04:55:11;;;;;;;2.93;2.83;;;15.80;99.90;;;16.07;80.99;101333.56;5113780;28;20465;-72
2021/09/19 04:57:40;;;;;;;2.67;2.58;;;15.90;99.90;;;16.17;80.87;101329.81;5095389;28;20941;-72
2021/09/19 05:00:09;;;;;;;3.13;2.92;;;16.00;99.90;;;16.24;80.55;101326.97;5113468;28;20039;-73
2021/09/19 05:02:38;;;;;;;2.80;2.70;;;16.00;99.90;;;16.32;80.08;101334.84;5113423;28;20075;-72
2021/09/19 05:05:09;;;;;;;4.25;3.85;;;16.10;99.90;;;16.32;79.86;101324.16;5113405;28;20040;-72
2021/09/19 05:07:37;;;;;;;3.28;3.17;;;16.10;99.90;;;16.30;79.81;101335.78;5095379;28;20054;-73
2021/09/19 05:10:09;;;;;;;3.05;2.95;;;16.10;99.90;;;16.20;79.81;101351.97;5113367;28;20046;-73
2021/09/19 05:12:38;;;;;;;3.00;2.90;;;16.10;99.90;;;16.18;80.31;101334.25;5113657;28;20097;-72
2021/09/19 05:15:08;;;;;;;3.13;3.03;;;16.00;99.90;;;16.19;80.18;101330.66;5113465;28;20055;-72
2021/09/19 05:17:37;;;;;;;2.60;2.50;;;16.00;99.90;;;16.19;80.29;101341.34;5113340;28;20484;-73
2021/09/19 05:20:08;;;;;;;2.92;2.83;;;16.00;99.90;;;16.20;80.36;101341.28;5113287;28;20050;-73
2021/09/19 05:22:36;;;;;;;2.63;2.53;;;16.00;99.90;;;16.15;80.37;101339.63;5113577;28;20052;-72
2021/09/19 05:25:07;;;;;;;3.00;2.90;;;16.00;99.90;;;15.78;81.46;101330.56;5113264;28;20071;-72
2021/09/19 05:27:36;;;;;;;3.95;3.67;;;15.70;99.90;;;15.87;81.67;101341.09;5113579;28;20096;-72
2021/09/19 05:30:06;;;;;;;3.33;3.17;;;15.70;99.90;;;15.80;81.88;101332.31;5113164;28;20511;-73
2021/09/19 05:32:34;;;;;;;3.63;3.42;;;15.60;99.90;;;15.84;81.93;101343.78;5113112;28;20088;-73
2021/09/19 05:35:03;;;;;;;2.80;2.70;;;15.60;99.90;;;15.63;82.59;101339.72;5113433;28;20047;-73
2021/09/19 05:37:32;;;;;;;3.85;3.65;;;15.50;99.90;;;15.67;83.10;101341.44;5095098;28;20543;-72
2021/09/19 05:40:01;;;;;;;4.35;4.10;;;15.50;99.90;;;15.57;83.20;101341.59;5094776;28;20044;-72
2021/09/19 05:42:31;;;;;;;3.58;3.40;;;15.40;99.90;;;15.25;84.39;101329.66;5113068;28;20067;-73
2021/09/19 05:44:59;;;;;;;3.00;2.90;;;15.20;99.90;;;15.21;85.26;101332.41;5116446;28;20447;-73
2021/09/19 05:47:27;;;;;;;7.90;7.10;;;15.00;99.90;;;15.38;84.91;101349.91;5116692;28;20036;-73
2021/09/19 05:49:56;;;;;;;3.60;3.42;;;15.10;99.90;;;15.41;84.57;101340.94;5117478;28;20074;-73
2021/09/19 05:52:24;;;;;;;3.72;3.53;;;15.20;99.90;;;15.28;84.91;101350.94;5117053;28;20431;-72
2021/09/19 05:54:52;;;;;;;40.65;4.25;;;15.10;99.90;;;15.41;85.30;101340.94;5116776;28;20050;-72
2021/09/19 05:57:21;;;;;;;3.40;3.20;;;15.10;99.90;;;15.78;84.52;101343.91;5116599;28;20122;-72
2021/09/19 05:59:51;;;;;;;3.80;3.60;;;15.40;99.90;;;15.88;83.95;101350.84;5116825;28;20046;-73
2021/09/19 06:02:19;;;;;;;2.80;2.70;;;15.60;99.90;;;15.85;83.43;101327.75;5098528;28;20044;-72
2021/09/19 06:04:48;;;;;;;3.50;3.40;;;15.80;99.90;;;15.96;82.94;101351.56;5116529;28;20089;-73
2021/09/19 06:07:16;;;;;;;2.90;2.80;;;15.80;99.90;;;16.14;82.77;101352.09;5116494;28;20106;-72
2021/09/19 06:09:45;;;;;;;3.03;2.92;;;15.90;99.90;;;16.32;82.03;101350.00;5116116;28;20047;-72
2021/09/19 06:12:13;;;;;;;3.05;2.95;;;16.10;99.90;;;16.39;81.51;101357.84;5116679;28;20093;-72
2021/09/19 06:14:41;;;;;;;4.10;3.90;;;16.20;99.90;;;16.22;81.52;101312.78;5116358;28;20554;-72
2021/09/19 06:17:11;;;;;;;3.42;3.33;;;16.20;99.90;;;16.53;81.08;101331.75;5116339;28;20373;-73
2021/09/19 06:19:40;;;;;;;3.13;3.03;;;16.40;99.90;;;16.87;80.30;101347.94;5098245;28;20138;-72
2021/09/19 06:22:08;;;;;;;3.28;3.17;;;16.60;99.90;;;16.83;79.68;101343.56;5116809;28;20073;-72
2021/09/19 06:24:36;;;;;;;4.18;3.50;;;16.70;99.90;;;16.84;79.33;101340.00;5116194;28;20071;-72
2021/09/19 06:27:05;;;;;;;2.83;2.72;;;16.70;99.90;;;17.17;79.13;101346.34;5116440;28;20093;-72
2021/09/19 06:29:33;;;;;;;3.47;3.28;;;16.90;99.90;;;16.84;79.98;101350.69;5116013;28;20063;-72
2021/09/19 06:32:01;;;;;;;2.90;2.80;;;16.70;99.90;;;16.88;80.35;101361.25;5115975;28;20040;-72
2021/09/19 06:34:31;;;;;;;5.47;4.57;;;16.60;99.90;;;16.05;82.50;101354.06;5116273;28;20050;-72
2021/09/19 06:37:00;;;;;;;5.45;4.95;;;16.10;99.90;;;16.44;81.67;101350.59;5097827;28;20047;-72
2021/09/19 06:39:28;;;;;;;3.30;3.13;;;16.20;99.90;;;16.55;81.32;101358.44;5115835;28;20036;-72
2021/09/19 06:41:56;;;;;;;6.00;4.13;;;16.30;99.90;;;16.50;81.33;101345.19;5116411;28;20040;-72
2021/09/19 06:44:25;;;;;;;6.82;5.45;;;16.40;99.90;;;16.43;82.73;101370.22;5097449;28;20488;-72
2021/09/19 06:46:56;;;;;;;4.10;3.80;;;16.20;99.90;;;16.92;81.09;101370.97;5116100;28;20069;-72
2021/09/19 06:49:25;;;;;;;3.85;3.65;;;16.50;99.90;;;16.84;80.74;101356.88;5116070;28;20051;-72
2021/09/19 06:51:55;;;;;;;4.65;4.38;;;16.60;99.90;;;17.20;79.66;101364.97;5115879;28;20035;-72
2021/09/19 06:54:23;;;;;;;3.80;3.50;;;16.90;99.90;;;17.04;79.84;101367.13;5115608;28;20088;-72
2021/09/19 06:56:52;;;;;;;4.72;4.43;;;16.80;99.90;;;16.87;80.74;101378.22;5096730;28;20054;-72
2021/09/19 06:59:20;;;;;;;3.88;3.67;;;16.60;99.90;;;17.22;80.09;101381.88;5115911;28;20115;-72
2021/09/19 07:01:49;;;;;;;4.82;4.47;;;16.90;99.90;;;17.23;79.76;101367.59;5115653;28;20048;-72
2021/09/19 07:04:18;;;;;;;3.63;3.47;;;17.00;99.90;;;16.67;81.44;101348.34;5115310;28;20071;-72
2021/09/19 07:06:46;;;;;;;8.40;5.97;;;16.70;99.90;;;16.85;80.54;101372.03;5115282;28;20472;-72
2021/09/19 07:09:16;;;;;;;3.58;3.38;;;16.70;99.90;;;17.02;81.70;101383.22;5115631;28;20048;-72
2021/09/19 07:11:45;;;;;;;3.35;3.22;;;16.70;99.90;;;17.46;80.90;101382.16;5116725;28;20525;-70
2021/09/19 07:14:13;;;;;;;4.47;3.85;;;17.00;99.90;;;17.36;79.79;101353.00;5115633;28;20079;-72
2021/09/19 07:16:42;;;;;;;5.95;5.13;;;17.20;99.90;;;16.96;81.37;101377.09;5097268;28;20047;-72
2021/09/19 07:19:11;;;;;;;4.43;4.13;;;16.80;99.90;;;17.00;80.91;101387.72;5096948;28;20039;-72
2021/09/19 07:21:39;;;;;;;2.95;2.85;;;16.80;99.90;;;17.12;81.25;101362.50;5115653;28;20067;-73
2021/09/19 07:24:08;;;;;;;5.13;4.70;;;16.90;99.90;;;17.56;78.26;101372.13;5115316;28;20431;-72
2021/09/19 07:26:38;;;;;;;5.05;4.65;;;17.30;99.90;;;17.36;78.83;101377.97;5114936;28;20488;-72
2021/09/19 07:29:07;;;;;;;3.03;2.92;;;17.20;99.90;;;17.46;78.71;101357.22;5114847;28;20096;-71
2021/09/19 07:31:35;;;;;;;3.92;3.63;;;17.30;99.90;;;17.33;78.22;101350.41;5096373;28;20481;-72
2021/09/19 07:34:05;;;;;;;4.43;4.05;;;17.30;99.90;;;18.12;77.81;101392.09;5096390;28;20521;-72
2021/09/19 07:36:36;;;;;;;4.57;4.18;;;17.70;99.90;;;17.57;78.28;101388.19;5114843;28;20145;-73
2021/09/19 07:39:07;;;;;;;6.57;5.15;;;17.40;99.90;;;18.00;76.85;101382.59;5114936;28;20477;-72
2021/09/19 07:41:37;;;;;;;4.32;4.03;;;17.70;99.90;;;18.08;75.99;101396.63;5114945;28;20051;-72
2021/09/19 07:44:07;;;;;;;4.20;3.90;;;17.80;99.90;;;17.84;78.02;101392.84;5114432;28;20447;-72
2021/09/19 07:46:36;;;;;;;5.55;4.93;;;17.60;99.90;;;17.02;79.40;101393.00;5114576;28;20063;-72
2021/09/19 07:49:05;;;;;;;10.05;5.82;;;17.00;99.90;;;16.89;80.48;101391.53;5096260;28;20051;-72
2021/09/19 07:51:34;;;;;;;5.15;4.80;;;16.70;99.90;;;17.13;80.71;101390.97;5114446;28;20138;-72
2021/09/19 07:54:03;;;;;;;6.45;5.85;;;16.70;99.90;;;17.47;80.02;101389.28;5114444;28;20070;-72
2021/09/19 07:56:32;;;;;;;8.48;6.88;;;17.10;99.90;;;17.35;78.53;101391.34;5114343;28;20051;-72
2021/09/19 07:59:02;;;;;;;4.30;4.00;;;17.10;99.90;;;16.62;79.95;101293.28;5114135;28;20518;-68
2021/09/19 08:01:30;;;;;;;8.98;6.47;;;16.80;99.90;;;16.97;80.67;101384.22;5114523;28;20044;-72
2021/09/19 08:03:59;;;;;;;6.63;5.72;;;16.70;99.90;;;17.38;80.22;101384.13;5114424;28;20032;-72
2021/09/19 08:06:27;;;;;;;10.95;5.57;;;17.00;99.90;;;17.00;80.44;101384.16;5113677;28;20048;-70
2021/09/19 08:08:56;;;;;;;5.88;5.25;;;16.70;99.90;;;17.42;80.71;101376.94;5113547;28;20035;-72
2021/09/19 08:11:24;;;;;;;4.43;4.05;;;17.10;99.90;;;17.81;78.80;101383.97;5114051;28;20048;-71
2021/09/19 08:13:56;;;;;;;5.25;4.80;;;17.40;99.90;;;17.66;77.63;101353.16;5113987;28;20032;-73
2021/09/19 08:16:26;;;;;;;4.80;4.10;;;17.50;99.90;;;18.17;77.04;101383.03;5114283;28;20059;-73
2021/09/19 08:18:54;;;;;;;5.30;4.72;;;17.80;99.90;;;17.94;77.29;101370.22;5113989;28;20050;-73
2021/09/19 08:21:22;;;;;;;3.60;3.35;;;17.80;99.90;;;18.63;75.47;101391.56;5114438;28;20036;-72
2021/09/19 08:23:51;;;;;;;4.53;4.32;;;18.20;99.90;;;18.64;74.72;101387.94;5114099;28;20044;-72
2021/09/19 08:26:19;;;;;;;5.70;4.53;;;18.50;99.90;;;18.45;74.62;101396.53;5095459;28;20548;-72
2021/09/19 08:28:47;;;;;;;4.68;4.40;;;18.30;99.90;;;18.63;76.70;101398.72;5113680;28;20104;-71
2021/09/19 08:31:16;;;;;;;5.80;4.88;;;18.30;99.90;;;18.67;74.68;101408.41;5113952;28;20043;-71
2021/09/19 08:33:47;;;;;;;7.20;5.57;;;18.40;99.90;;;18.71;73.41;101352.00;5113533;28;20570;-71
2021/09/19 08:36:15;;;;;;;4.85;4.43;;;18.70;99.90;;;18.49;73.53;101419.66;5113633;28;20062;-74
2021/09/19 08:38:44;;;;;;;6.05;5.03;;;18.30;99.90;;;18.32;74.95;101405.81;5113720;28;20098;-69
2021/09/19 08:41:15;;;;;;;6.90;6.00;;;18.00;99.90;;;18.09;75.16;101414.47;5113879;28;20074;-70
2021/09/19 08:43:44;;;;;;;5.70;5.20;;;17.80;99.90;;;18.19;76.67;101405.28;5113849;28;20139;-77
2021/09/19 08:46:15;;;;;;;3.67;3.47;;;17.80;99.90;;;18.48;76.33;101405.41;5113876;28;20043;-75
2021/09/19 08:48:45;;;;;;;3.97;3.78;;;18.10;99.90;;;18.65;75.77;101427.22;5113549;28;20071;-73
2021/09/19 08:51:15;;;;;;;7.25;5.32;;;18.30;99.90;;;17.59;74.89;101275.75;5113841;28;20130;-76
2021/09/19 08:53:43;;;;;;;5.32;4.90;;;18.20;99.90;;;18.32;74.63;101408.50;5113222;28;20138;-77
2021/09/19 08:56:12;;;;;;;8.98;5.78;;;18.00;99.90;;;18.38;74.84;101416.38;5113582;28;20047;-75
2021/09/19 08:58:40;;;;;;;3.45;3.30;;;18.10;99.90;;;18.59;75.06;101410.44;5113360;28;20575;-76
2021/09/19 09:01:08;;;;;;;4.57;4.28;;;18.20;99.90;;;18.90;74.01;101424.69;5113314;28;20040;-77
2021/09/19 09:03:37;;;;;;;5.35;4.82;;;18.50;99.90;;;18.74;73.43;101410.88;5113354;28;20035;-76
2021/09/19 09:06:08;;;;;;;5.75;5.25;;;18.50;99.90;;;18.54;73.96;101426.63;5113978;28;20052;-75
2021/09/19 09:08:37;;;;;;;4.85;4.45;;;18.30;99.90;;;18.61;74.74;101417.50;5113439;28;20485;-77
2021/09/19 09:11:07;;;;;;;3.88;3.65;;;18.30;99.90;;;19.18;73.98;101422.06;5113566;28;20434;-70
2021/09/19 09:13:39;;;;;;;5.07;4.68;;;18.70;99.90;;;18.95;72.02;101411.19;5113419;28;20100;-83
2021/09/19 09:16:11;;;;;;;5.68;5.07;;;18.80;99.90;;;18.95;72.14;101438.84;5113804;28;20089;-81
2021/09/19 09:18:45;;;;;;;6.20;5.50;;;18.70;99.90;;;18.96;72.62;101426.31;5096470;28;20096;-81
2021/09/19 09:21:19;;;;;;;6.97;5.32;;;18.60;99.90;;;19.14;73.00;101485.66;5117403;28;20047;-77
2021/09/19 09:23:49;;;;;;;6.43;4.70;;;18.70;99.90;;;19.36;71.58;101426.88;5099332;28;20117;-78
2021/09/19 09:26:23;;;;;;;6.28;5.70;;;19.00;99.90;;;19.31;71.04;101434.19;5117266;28;20159;-80
2021/09/19 09:29:00;;;;;;;4.18;3.88;;;19.00;99.90;;;19.47;71.64;101430.97;5117111;28;20035;-73
2021/09/19 09:31:35;;;;;;;4.57;4.28;;;19.10;99.90;;;19.79;71.56;101424.56;5117433;28;20047;-72
2021/09/19 09:34:12;;;;;;;4.05;3.85;;;19.40;99.90;;;20.05;69.67;101434.44;5117068;28;20044;-72
2021/09/19 09:36:51;;;;;;;2.90;2.80;;;19.70;99.90;;;20.13;68.29;101438.59;5116877;28;20040;-74
2021/09/19 09:39:33;;;;;;;3.83;3.40;;;19.90;99.90;;;20.48;68.44;101429.31;5117312;28;20138;-76
2021/09/19 09:42:07;;;;;;;5.20;4.70;;;20.20;99.90;;;20.27;67.84;101439.03;5116864;28;20044;-72
2021/09/19 09:44:39;;;;;;;4.22;3.92;;;20.10;99.90;;;20.13;68.87;101438.59;5116878;28;20048;-72
2021/09/19 09:47:12;;;;;;;3.63;3.33;;;19.90;99.90;;;20.58;68.74;101434.34;5116760;28;20097;-72
2021/09/19 09:49:47;;;;;;;2.95;2.80;;;20.20;99.90;;;20.50;69.10;101430.16;5116909;28;20047;-75
2021/09/19 09:52:23;;;;;;;4.65;4.25;;;20.20;99.90;;;20.21;68.22;101444.63;5117107;28;20481;-91
2021/09/19 09:54:55;;;;;;;3.53;3.33;;;20.00;99.90;;;20.31;69.18;101438.00;5117064;28;20066;-75
2021/09/19 09:57:54;;;;;;;4.20;3.90;;;20.00;99.90;;;20.42;68.17;101441.19;5117121;28;20043;-78
2021/09/19 10:00:23;;;;;;;3.85;3.53;;;20.10;99.90;;;20.22;68.99;101450.88;5117622;28;20044;-83
2021/09/19 10:02:53;;;;;;;7.93;4.80;;;19.90;99.90;;;20.13;68.75;101443.97;5098850;28;20552;-75
2021/09/19 10:05:23;;;;;;;4.93;4.60;;;19.90;99.90;;;20.29;69.15;101450.63;5116946;28;20093;-84
2021/09/19 10:07:52;;;;;;;4.95;4.60;;;19.90;99.90;;;20.45;69.10;101446.47;5116596;28;20138;-76
2021/09/19 10:10:23;;;;;;;3.30;3.10;;;20.10;99.90;;;20.55;69.31;101444.31;5116402;28;20137;-74
2021/09/19 10:12:54;;;;;;;4.07;3.78;;;20.20;99.90;;;20.64;68.76;101444.88;5116191;28;20047;-77
2021/09/19 10:15:24;;;;;;;2.40;2.30;;;20.30;99.90;;;20.68;68.24;101437.56;5097896;28;20085;-80
2021/09/19 10:17:53;;;;;;;6.85;3.60;;;20.40;99.90;;;20.48;68.21;101435.59;5116531;28;20047;-73
2021/09/19 10:20:27;;;;;;;4.85;4.47;;;20.30;99.90;;;20.31;68.88;101432.63;5116408;28;20047;-81
2021/09/19 10:23:05;;;;;;;4.65;4.25;;;20.10;99.90;;;19.99;68.45;101351.38;5116439;28;20047;-75